Time;durP1;ratioP1;P1;durP2;ratioP2;P2;SDS_P1;SDS_P2;PMS_P1;PMS_P2;Temp;Humidity;BMP_temperature;BMP_pressure;BME280_temperature;BME280_humidity;BME280_pressure;Samples;Min_cycle;Max_cycle;Signal;HPM_P1;HPM_P2
2022/10/10 00:00:04;;;;;;;6.18;3.88;;;14.20;69.60;;;;;;5114271;28;20031;-16
2022/10/10 00:02:30;;;;;;;7.40;4.30;;;14.20;69.40;;;;;;5114784;28;20102;-15
2022/10/10 00:04:56;;;;;;;6.32;4.07;;;14.10;69.80;;;;;;5113977;28;20481;-14
2022/10/10 00:07:22;;;;;;;9.20;4.55;;;14.10;69.70;;;;;;5113832;28;20479;-17
2022/10/10 00:09:47;;;;;;;6.40;4.47;;;14.00;70.00;;;;;;5113660;28;20114;-16
2022/10/10 00:12:13;;;;;;;6.07;3.97;;;14.00;69.90;;;;;;5114049;28;20034;-15
2022/10/10 00:14:39;;;;;;;7.70;4.07;;;13.90;69.90;;;;;;5113726;28;20024;-16
2022/10/10 00:17:05;;;;;;;5.95;3.85;;;13.90;69.90;;;;;;5113499;28;20023;-16
2022/10/10 00:19:31;;;;;;;7.53;3.85;;;13.90;70.00;;;;;;5114300;28;20023;-17
2022/10/10 00:21:57;;;;;;;8.07;4.80;;;13.90;70.20;;;;;;5113560;28;20564;-15
2022/10/10 00:24:22;;;;;;;8.20;5.10;;;13.80;70.70;;;;;;5113833;28;20030;-15
2022/10/10 00:26:48;;;;;;;13.40;5.50;;;13.80;70.90;;;;;;5113351;28;20391;-15
2022/10/10 00:29:14;;;;;;;7.93;4.40;;;13.70;71.10;;;;;;5113981;28;20024;-15
2022/10/10 00:31:40;;;;;;;7.85;4.70;;;13.70;71.30;;;;;;5113462;28;20036;-15
2022/10/10 00:34:06;;;;;;;8.93;4.68;;;13.60;71.40;;;;;;5113301;28;20055;-15
2022/10/10 00:36:32;;;;;;;5.47;4.10;;;13.60;71.60;;;;;;5113513;28;20111;-16
2022/10/10 00:38:57;;;;;;;5.97;4.30;;;13.60;71.50;;;;;;5113590;28;20055;-16
2022/10/10 00:41:25;;;;;;;9.43;5.15;;;13.60;71.90;;;;;;5113388;28;20031;-14
2022/10/10 00:44:06;;;;;;;8.70;5.10;;;13.50;72.10;;;;;;5113897;28;20083;-15
2022/10/10 00:46:33;;;;;;;9.50;5.38;;;13.50;72.00;;;;;;5118023;28;20030;-16
2022/10/10 00:49:00;;;;;;;9.57;5.97;;;13.50;72.10;;;;;;5117272;28;20510;-15
2022/10/10 00:51:26;;;;;;;6.43;4.50;;;13.40;72.30;;;;;;5117842;28;20031;-17
2022/10/10 00:53:58;;;;;;;7.75;4.85;;;13.40;72.40;;;;;;5117916;28;20024;-14
2022/10/10 00:56:31;;;;;;;6.90;4.63;;;13.40;72.20;;;;;;5117485;28;20028;-16
2022/10/10 00:59:02;;;;;;;8.73;5.18;;;13.40;72.20;;;;;;5117564;28;20046;-15
2022/10/10 01:01:28;;;;;;;10.80;6.03;;;13.40;72.20;;;;;;5117406;28;20043;-15
2022/10/10 01:04:00;;;;;;;8.85;4.85;;;13.40;72.30;;;;;;5117494;28;20038;-15
2022/10/10 01:06:26;;;;;;;7.15;4.25;;;13.40;72.30;;;;;;5117529;28;20042;-15
2022/10/10 01:08:53;;;;;;;6.97;4.35;;;13.40;72.30;;;;;;5116856;28;20077;-16
2022/10/10 01:11:37;;;;;;;9.30;5.00;;;13.40;72.50;;;;;;5117371;28;20046;-17
2022/10/10 01:14:33;;;;;;;5.90;4.05;;;13.40;72.40;;;;;;5117534;28;20023;-16
2022/10/10 01:17:28;;;;;;;8.07;4.68;;;13.40;72.30;;;;;;5116939;28;20031;-15
2022/10/10 01:20:33;;;;;;;8.60;4.22;;;13.50;72.20;;;;;;5117326;28;20097;-15
2022/10/10 01:23:14;;;;;;;7.35;4.63;;;13.40;72.10;;;;;;5117153;28;20371;-15
2022/10/10 01:26:05;;;;;;;7.55;4.60;;;13.40;72.00;;;;;;5117187;28;20047;-15
2022/10/10 01:28:40;;;;;;;7.82;4.57;;;13.50;72.10;;;;;;5116786;28;20472;-15
2022/10/10 01:31:09;;;;;;;7.25;4.82;;;13.50;72.00;;;;;;5116747;28;20024;-16
2022/10/10 01:33:41;;;;;;;7.32;4.78;;;13.50;72.10;;;;;;5117029;28;20055;-15
2022/10/10 01:36:45;;;;;;;7.97;4.40;;;13.50;72.00;;;;;;5116514;28;20101;-15
2022/10/10 01:39:44;;;;;;;7.40;4.25;;;13.50;72.00;;;;;;5105327;28;20038;-17
2022/10/10 01:42:28;;;;;;;7.90;4.68;;;13.50;72.30;;;;;;5045794;28;20034;-16
2022/10/10 01:44:55;;;;;;;8.15;5.07;;;13.60;72.20;;;;;;5116668;28;20031;-15
2022/10/10 01:47:21;;;;;;;7.45;4.60;;;13.50;72.30;;;;;;5116522;28;20431;-17
2022/10/10 01:49:57;;;;;;;6.65;4.00;;;13.50;72.30;;;;;;5116670;27;20032;-16
2022/10/10 01:52:49;;;;;;;8.23;4.50;;;13.50;72.40;;;;;;5116702;28;20012;-15
2022/10/10 01:55:30;;;;;;;8.95;4.40;;;13.40;72.30;;;;;;5105029;28;20032;-15
2022/10/10 01:58:35;;;;;;;7.13;4.13;;;13.40;72.40;;;;;;5116222;28;20108;-15
2022/10/10 02:01:30;;;;;;;7.07;4.70;;;13.40;72.40;;;;;;5116376;27;20034;-16
2022/10/10 02:04:12;;;;;;;9.43;4.65;;;13.40;72.30;;;;;;5116558;28;20030;-15
2022/10/10 02:06:45;;;;;;;8.68;5.35;;;13.40;72.30;;;;;;5116416;27;20020;-15
2022/10/10 02:09:18;;;;;;;11.17;5.10;;;13.40;72.30;;;;;;5116251;28;20032;-15
2022/10/10 02:11:44;;;;;;;9.88;5.30;;;13.40;72.30;;;;;;5116094;28;20015;-15
2022/10/10 02:14:26;;;;;;;8.45;4.53;;;13.40;72.30;;;;;;5116115;28;20055;-14
2022/10/10 02:16:54;;;;;;;6.05;4.00;;;13.30;72.40;;;;;;5115981;28;20027;-15
2022/10/10 02:19:22;;;;;;;9.68;4.90;;;13.40;72.40;;;;;;5116417;28;20051;-16
2022/10/10 02:21:51;;;;;;;8.48;4.90;;;13.40;72.40;;;;;;5116606;28;20024;-14
2022/10/10 02:24:19;;;;;;;7.55;4.80;;;13.40;72.40;;;;;;5115688;28;20110;-15
2022/10/10 02:26:51;;;;;;;7.47;5.07;;;13.40;72.50;;;;;;5115945;27;20521;-15
2022/10/10 02:29:25;;;;;;;6.40;4.28;;;13.40;72.50;;;;;;5115637;28;20119;-15
2022/10/10 02:32:16;;;;;;;6.63;4.28;;;13.50;72.40;;;;;;5116011;28;20031;-15
2022/10/10 02:34:46;;;;;;;11.75;5.30;;;13.50;72.20;;;;;;5115547;28;20048;-17
2022/10/10 02:37:14;;;;;;;6.93;4.15;;;13.60;72.10;;;;;;5116439;28;20036;-16
2022/10/10 02:39:55;;;;;;;6.95;4.00;;;13.60;72.00;;;;;;5115343;28;20049;-15
2022/10/10 02:42:22;;;;;;;8.93;4.57;;;13.70;71.90;;;;;;5116095;28;20382;-16
2022/10/10 02:44:49;;;;;;;6.68;4.10;;;13.70;71.90;;;;;;5115116;28;20028;-17
2022/10/10 02:47:15;;;;;;;7.00;4.03;;;13.70;72.10;;;;;;5115618;28;20023;-17
2022/10/10 02:49:41;;;;;;;8.05;3.95;;;13.70;72.00;;;;;;5115329;28;20032;-18
2022/10/10 02:52:08;;;;;;;8.57;3.88;;;13.80;71.90;;;;;;5115278;28;20046;-15
2022/10/10 02:54:34;;;;;;;9.30;4.72;;;13.70;71.70;;;;;;5115113;28;20031;-15
2022/10/10 02:57:00;;;;;;;6.50;3.65;;;13.70;71.90;;;;;;5113670;28;20031;-16
2022/10/10 02:59:26;;;;;;;5.32;3.80;;;13.70;71.70;;;;;;5115081;28;20028;-15
2022/10/10 03:01:52;;;;;;;8.75;4.35;;;13.70;71.80;;;;;;5115352;28;20047;-17
2022/10/10 03:04:18;;;;;;;5.40;3.90;;;13.70;71.70;;;;;;5115282;27;20112;-15
2022/10/10 03:06:44;;;;;;;9.65;4.55;;;13.80;71.60;;;;;;5114650;28;20479;-17
2022/10/10 03:09:10;;;;;;;6.68;4.22;;;13.80;71.50;;;;;;5114651;28;20035;-17
2022/10/10 03:11:36;;;;;;;6.88;3.83;;;13.90;71.40;;;;;;5114760;28;20433;-15
2022/10/10 03:14:02;;;;;;;6.68;4.20;;;13.90;71.00;;;;;;5113921;28;20091;-15
2022/10/10 03:16:27;;;;;;;8.55;4.45;;;13.90;70.90;;;;;;5115047;28;20069;-14
2022/10/10 03:18:53;;;;;;;7.57;5.13;;;13.90;71.00;;;;;;5115155;28;20020;-16
2022/10/10 03:21:19;;;;;;;9.07;4.68;;;13.90;70.80;;;;;;5114736;28;20570;-15
2022/10/10 03:23:45;;;;;;;7.15;4.20;;;13.90;70.70;;;;;;5114767;28;20028;-15
2022/10/10 03:26:11;;;;;;;5.78;3.70;;;14.00;70.70;;;;;;5114649;28;20024;-16
2022/10/10 03:28:37;;;;;;;5.53;3.90;;;13.90;70.60;;;;;;5114490;28;20099;-13
2022/10/10 03:31:03;;;;;;;7.38;4.15;;;14.00;70.40;;;;;;5114626;28;20114;-15
2022/10/10 03:33:29;;;;;;;8.38;4.30;;;14.00;70.40;;;;;;5114384;28;20028;-15
2022/10/10 03:35:55;;;;;;;7.50;4.50;;;14.00;70.30;;;;;;5114216;28;20104;-15
2022/10/10 03:38:21;;;;;;;6.60;4.20;;;14.00;70.40;;;;;;5114309;28;20018;-15
2022/10/10 03:40:47;;;;;;;5.97;3.88;;;14.10;70.30;;;;;;5113118;28;20035;-16
2022/10/10 03:43:13;;;;;;;5.90;3.75;;;14.10;70.00;;;;;;5114555;28;20467;-15
2022/10/10 03:45:44;;;;;;;5.70;3.63;;;14.10;70.00;;;;;;5114373;28;20102;-15
2022/10/10 03:48:11;;;;;;;5.25;3.70;;;14.10;69.90;;;;;;5114533;28;20024;-17
2022/10/10 03:50:37;;;;;;;7.60;3.90;;;14.10;69.90;;;;;;5114405;28;20038;-16
2022/10/10 03:53:03;;;;;;;6.20;4.15;;;14.10;69.90;;;;;;5113934;28;20019;-15
2022/10/10 03:55:29;;;;;;;5.20;4.00;;;14.10;69.80;;;;;;5114024;28;20080;-15
2022/10/10 03:57:55;;;;;;;6.25;4.05;;;14.10;69.90;;;;;;5113913;28;20031;-14
2022/10/10 04:00:21;;;;;;;8.85;4.35;;;14.10;70.00;;;;;;5113952;28;20016;-14
2022/10/10 04:02:46;;;;;;;7.13;4.30;;;14.10;69.90;;;;;;5113692;28;20027;-14
2022/10/10 04:05:12;;;;;;;8.10;4.78;;;14.10;69.90;;;;;;5113904;28;20043;-15
2022/10/10 04:07:40;;;;;;;7.65;4.65;;;14.10;69.90;;;;;;5112961;28;20026;-15
2022/10/10 04:10:08;;;;;;;6.88;4.30;;;14.20;69.90;;;;;;5114128;28;20499;-14
2022/10/10 04:12:34;;;;;;;8.93;4.70;;;14.20;69.90;;;;;;5113802;28;20016;-16
2022/10/10 04:15:00;;;;;;;7.95;3.90;;;14.20;69.90;;;;;;5113524;28;20027;-15
2022/10/10 04:17:26;;;;;;;7.45;4.65;;;14.20;69.90;;;;;;5114017;28;20031;-14
2022/10/10 04:19:51;;;;;;;8.02;4.80;;;14.30;69.90;;;;;;5111912;28;20383;-14
2022/10/10 04:22:18;;;;;;;7.43;5.07;;;14.30;69.90;;;;;;5113552;28;20028;-14
2022/10/10 04:24:44;;;;;;;7.90;4.43;;;14.20;69.80;;;;;;5113940;28;20163;-14
2022/10/10 04:27:10;;;;;;;7.53;3.97;;;14.30;69.90;;;;;;5113823;28;20480;-13
2022/10/10 04:29:36;;;;;;;6.88;4.60;;;14.30;69.90;;;;;;5113535;28;20161;-16
2022/10/10 04:32:02;;;;;;;7.88;3.92;;;14.30;70.00;;;;;;5113903;28;20106;-15
2022/10/10 04:34:28;;;;;;;8.13;4.18;;;14.30;70.00;;;;;;5113283;28;20062;-13
2022/10/10 04:36:54;;;;;;;5.93;4.07;;;14.30;70.10;;;;;;5113347;28;20024;-14
2022/10/10 04:39:20;;;;;;;9.18;4.38;;;14.30;70.10;;;;;;5113548;28;20024;-13
2022/10/10 04:41:49;;;;;;;7.20;3.78;;;14.20;70.20;;;;;;5113721;28;20034;-16
2022/10/10 04:44:18;;;;;;;7.22;4.20;;;14.20;70.10;;;;;;5113460;28;20027;-16
2022/10/10 04:46:45;;;;;;;7.75;4.10;;;14.20;70.20;;;;;;5113564;28;20526;-14
2022/10/10 04:49:11;;;;;;;7.72;3.80;;;14.20;70.30;;;;;;5113123;28;20035;-16
2022/10/10 04:51:37;;;;;;;6.43;3.28;;;14.20;70.40;;;;;;5113683;28;20046;-15
2022/10/10 04:54:03;;;;;;;6.63;3.85;;;14.20;70.30;;;;;;5113989;28;20531;-15
2022/10/10 04:56:29;;;;;;;9.65;4.82;;;14.20;70.40;;;;;;5113503;28;20088;-14
2022/10/10 04:58:55;;;;;;;7.72;4.22;;;14.30;70.70;;;;;;5113083;28;20520;-15
2022/10/10 05:01:21;;;;;;;9.98;4.88;;;14.30;70.60;;;;;;5113607;28;20057;-14
2022/10/10 05:03:47;;;;;;;11.45;5.97;;;14.30;70.60;;;;;;5113849;28;20390;-14
2022/10/10 05:06:13;;;;;;;11.38;5.47;;;14.20;70.70;;;;;;5113487;28;20030;-15
2022/10/10 05:08:39;;;;;;;11.52;5.72;;;14.30;70.90;;;;;;5113182;28;20035;-15
2022/10/10 05:11:05;;;;;;;11.73;5.43;;;14.20;71.10;;;;;;5112868;28;20110;-15
2022/10/10 05:13:31;;;;;;;9.70;5.60;;;14.30;71.10;;;;;;5113240;28;20022;-14
2022/10/10 05:15:57;;;;;;;11.82;6.30;;;14.30;71.10;;;;;;5113342;28;20100;-14
2022/10/10 05:18:23;;;;;;;10.68;5.53;;;14.20;71.10;;;;;;5113457;28;20042;-14
2022/10/10 05:20:49;;;;;;;12.40;6.05;;;14.30;71.10;;;;;;5113208;28;20467;-15
2022/10/10 05:23:16;;;;;;;9.43;5.47;;;14.30;71.00;;;;;;5111860;28;20387;-15
2022/10/10 05:25:44;;;;;;;10.25;5.22;;;14.30;70.90;;;;;;5113214;28;20016;-14
2022/10/10 05:28:10;;;;;;;9.95;5.30;;;14.40;70.90;;;;;;5113586;28;20024;-14
2022/10/10 05:30:36;;;;;;;8.95;5.20;;;14.40;70.70;;;;;;5114603;28;20479;-15
2022/10/10 05:33:02;;;;;;;8.27;5.13;;;14.40;70.70;;;;;;5117126;28;20475;-15
2022/10/10 05:35:28;;;;;;;9.23;5.28;;;14.50;70.60;;;;;;5252798;22;20048;-15
2022/10/10 05:37:54;;;;;;;12.20;6.25;;;14.50;70.50;;;;;;5096334;28;20028;-14
2022/10/10 05:40:20;;;;;;;12.35;5.68;;;14.50;70.50;;;;;;5096527;28;20024;-14
2022/10/10 05:42:46;;;;;;;11.95;5.57;;;14.60;70.50;;;;;;5096536;28;20028;-15
2022/10/10 05:45:12;;;;;;;10.60;5.18;;;14.60;70.40;;;;;;5096181;28;20040;-17
2022/10/10 05:47:37;;;;;;;9.95;5.45;;;14.60;70.20;;;;;;5096150;28;20036;-14
2022/10/10 05:50:04;;;;;;;11.32;5.32;;;14.70;70.20;;;;;;5095917;28;20133;-15
2022/10/10 05:52:30;;;;;;;8.93;4.82;;;14.70;70.20;;;;;;5096338;28;20107;-15
2022/10/10 05:54:56;;;;;;;11.13;5.60;;;14.70;70.20;;;;;;5096108;28;20032;-14
2022/10/10 05:57:21;;;;;;;12.10;6.00;;;14.80;70.30;;;;;;5094708;28;20051;-17
2022/10/10 05:59:47;;;;;;;9.40;5.18;;;14.80;70.40;;;;;;5095870;28;20020;-15
2022/10/10 06:02:13;;;;;;;9.65;5.05;;;14.80;70.40;;;;;;5095925;28;20051;-15
2022/10/10 06:04:39;;;;;;;11.85;5.38;;;14.90;70.20;;;;;;5096417;28;20028;-15
2022/10/10 06:07:05;;;;;;;10.68;5.18;;;14.90;69.90;;;;;;5095794;28;20051;-15
2022/10/10 06:09:31;;;;;;;10.90;5.20;;;14.90;69.90;;;;;;5095720;28;20435;-15
2022/10/10 06:11:57;;;;;;;10.43;5.55;;;14.90;69.90;;;;;;5096268;28;20375;-14
2022/10/10 06:14:23;;;;;;;10.00;5.65;;;15.00;69.90;;;;;;5095923;28;20036;-15
2022/10/10 06:16:48;;;;;;;10.32;5.80;;;15.10;70.00;;;;;;5095480;28;20107;-15
2022/10/10 06:19:14;;;;;;;11.18;5.55;;;15.10;70.10;;;;;;5094329;28;20055;-14
2022/10/10 06:21:40;;;;;;;10.32;6.00;;;15.10;70.00;;;;;;5095372;28;20024;-13
2022/10/10 06:24:07;;;;;;;11.63;5.40;;;15.20;70.10;;;;;;5095637;28;20024;-15
2022/10/10 06:26:33;;;;;;;12.82;7.00;;;15.20;70.00;;;;;;5095378;28;20487;-16
2022/10/10 06:28:59;;;;;;;10.30;5.10;;;15.30;70.20;;;;;;5095189;28;20032;-14
2022/10/10 06:31:24;;;;;;;9.10;5.30;;;15.30;69.80;;;;;;5095253;28;20031;-14
2022/10/10 06:33:52;;;;;;;12.07;6.28;;;15.30;69.70;;;;;;5095576;28;20024;-15
2022/10/10 06:36:18;;;;;;;9.52;5.38;;;15.30;70.00;;;;;;5094851;28;20056;-14
2022/10/10 06:38:45;;;;;;;10.68;5.50;;;15.40;70.10;;;;;;5095387;28;20073;-15
2022/10/10 06:41:12;;;;;;;9.10;4.75;;;15.40;70.30;;;;;;5094421;28;20035;-15
2022/10/10 06:43:38;;;;;;;10.77;5.45;;;15.40;70.40;;;;;;5094848;28;20051;-15
2022/10/10 06:46:04;;;;;;;8.65;5.22;;;15.40;70.30;;;;;;5093775;28;20059;-14
2022/10/10 06:48:31;;;;;;;9.40;5.25;;;15.50;70.20;;;;;;5094870;28;20376;-14
2022/10/10 06:50:58;;;;;;;10.68;5.97;;;15.50;70.30;;;;;;5094648;28;20077;-14
2022/10/10 06:53:25;;;;;;;12.32;6.00;;;15.50;70.20;;;;;;5095167;28;20024;-15
2022/10/10 06:55:53;;;;;;;11.20;5.47;;;15.60;70.20;;;;;;5095093;28;20433;-15
2022/10/10 06:58:20;;;;;;;9.23;5.60;;;15.50;70.30;;;;;;5094923;28;20107;-15
2022/10/10 07:00:54;;;;;;;8.05;5.30;;;15.50;70.30;;;;;;5095153;28;20063;-17
2022/10/10 07:03:20;;;;;;;16.15;6.88;;;15.60;70.30;;;;;;5093809;28;20024;-15
2022/10/10 07:05:58;;;;;;;11.88;6.00;;;15.60;70.30;;;;;;5094497;28;20416;-15
2022/10/10 07:08:24;;;;;;;10.88;5.70;;;15.70;70.20;;;;;;5094867;28;20064;-16
2022/10/10 07:10:50;;;;;;;13.57;6.97;;;15.70;70.10;;;;;;5094310;28;20115;-15
2022/10/10 07:13:17;;;;;;;15.05;7.68;;;15.70;69.90;;;;;;5094438;28;20118;-15
2022/10/10 07:15:43;;;;;;;10.55;6.13;;;15.90;70.30;;;;;;5094451;28;20028;-15
2022/10/10 07:18:09;;;;;;;10.95;6.28;;;15.90;69.80;;;;;;5094379;28;20031;-15
2022/10/10 07:20:35;;;;;;;9.38;6.03;;;16.00;70.10;;;;;;5094504;28;20035;-15
2022/10/10 07:23:02;;;;;;;11.07;6.68;;;16.10;69.80;;;;;;5094387;28;20028;-15
2022/10/10 07:25:28;;;;;;;11.40;6.03;;;16.20;69.30;;;;;;5094561;28;20032;-17
2022/10/10 07:27:55;;;;;;;9.77;5.60;;;16.30;68.90;;;;;;5094601;28;20020;-15
2022/10/10 07:30:25;;;;;;;9.77;5.70;;;16.40;68.80;;;;;;5094162;28;20036;-15
2022/10/10 07:32:54;;;;;;;11.40;6.72;;;16.50;68.60;;;;;;5094195;28;20016;-13
2022/10/10 07:35:20;;;;;;;10.05;5.72;;;16.60;68.40;;;;;;5093843;28;20032;-14
2022/10/10 07:37:47;;;;;;;13.23;6.93;;;16.80;68.20;;;;;;5094080;28;20031;-16
2022/10/10 07:40:13;;;;;;;23.63;8.18;;;16.90;68.00;;;;;;5093922;28;20024;-16
2022/10/10 07:42:39;;;;;;;14.18;6.78;;;17.00;68.10;;;;;;5093948;28;20028;-15
2022/10/10 07:45:06;;;;;;;14.70;6.55;;;17.20;68.00;;;;;;5093762;28;20024;-15
2022/10/10 07:47:32;;;;;;;11.85;6.55;;;17.30;67.40;;;;;;5093838;28;20028;-17
2022/10/10 07:49:57;;;;;;;12.88;5.75;;;17.40;67.50;;;;;;5092794;28;20089;-16
2022/10/10 07:52:23;;;;;;;15.25;7.28;;;17.50;67.10;;;;;;5093980;28;20505;-15
2022/10/10 07:54:49;;;;;;;8.50;5.68;;;17.60;66.60;;;;;;5093315;28;20028;-15
2022/10/10 07:57:15;;;;;;;10.60;5.45;;;17.70;66.50;;;;;;5093677;28;20032;-14
2022/10/10 07:59:44;;;;;;;11.18;5.57;;;17.80;66.40;;;;;;5093644;28;20027;-15
2022/10/10 08:02:10;;;;;;;11.25;6.85;;;17.90;66.10;;;;;;5093836;28;20027;-15
2022/10/10 08:04:36;;;;;;;8.02;5.47;;;18.10;65.70;;;;;;5093843;28;20024;-15
2022/10/10 08:07:02;;;;;;;13.98;7.50;;;18.20;65.30;;;;;;5093344;28;20145;-16
2022/10/10 08:09:28;;;;;;;14.48;6.65;;;18.40;64.80;;;;;;5094023;28;20123;-15
2022/10/10 08:11:54;;;;;;;13.02;6.85;;;18.40;64.40;;;;;;5093451;28;20153;-15
2022/10/10 08:14:20;;;;;;;10.63;6.18;;;18.50;64.50;;;;;;5093526;28;20024;-15
2022/10/10 08:16:46;;;;;;;12.60;7.72;;;18.60;64.50;;;;;;5093422;28;20039;-16
2022/10/10 08:19:12;;;;;;;9.50;6.57;;;18.70;64.80;;;;;;5093311;28;20104;-16
2022/10/10 08:21:37;;;;;;;13.88;8.10;;;18.80;64.30;;;;;;5093417;28;20024;-15
2022/10/10 08:24:03;;;;;;;8.88;5.95;;;18.90;64.80;;;;;;5093530;28;20475;-15
2022/10/10 08:26:29;;;;;;;11.57;8.00;;;19.10;64.20;;;;;;5093598;28;20047;-15
2022/10/10 08:28:55;;;;;;;11.13;7.05;;;19.20;63.90;;;;;;5093007;28;20133;-15
2022/10/10 08:31:21;;;;;;;9.52;6.20;;;19.40;63.10;;;;;;5093520;28;20028;-17
2022/10/10 08:33:49;;;;;;;10.93;6.90;;;19.60;62.70;;;;;;5093279;28;20032;-15
2022/10/10 08:36:21;;;;;;;10.93;6.68;;;19.70;62.40;;;;;;5091680;28;20076;-15
2022/10/10 08:38:47;;;;;;;13.25;6.78;;;19.80;62.10;;;;;;5092984;28;20479;-15
2022/10/10 08:41:38;;;;;;;11.48;6.43;;;19.90;60.90;;;;;;5093152;28;20028;-16
2022/10/10 08:44:36;;;;;;;11.10;6.68;;;19.90;60.00;;;;;;5093773;28;20048;-15
2022/10/10 08:47:23;;;;;;;12.32;6.22;;;19.90;58.50;;;;;;5093775;28;20451;-15
2022/10/10 08:49:54;;;;;;;18.40;8.18;;;20.00;59.60;;;;;;5093053;28;20036;-15
2022/10/10 08:52:29;;;;;;;15.10;7.38;;;20.00;59.30;;;;;;5092956;28;20032;-15
2022/10/10 08:54:57;;;;;;;12.18;6.90;;;20.10;58.50;;;;;;5093493;28;20020;-15
2022/10/10 08:57:29;;;;;;;10.88;6.13;;;20.10;58.80;;;;;;5093589;28;20456;-14
2022/10/10 09:00:00;;;;;;;10.30;6.38;;;20.30;58.70;;;;;;5093357;28;20028;-15
2022/10/10 09:02:44;;;;;;;12.20;6.78;;;20.40;57.10;;;;;;5094099;28;20028;-15
2022/10/10 09:05:17;;;;;;;10.48;6.15;;;20.60;57.50;;;;;;5093635;28;20455;-15
2022/10/10 09:08:07;;;;;;;10.37;6.87;;;20.90;57.40;;;;;;5096956;28;20031;-15
2022/10/10 09:10:54;;;;;;;12.10;6.95;;;21.20;56.40;;;;;;5097092;28;20112;-14
2022/10/10 09:13:29;;;;;;;10.50;6.78;;;21.80;55.10;;;;;;5097338;28;20021;-15
2022/10/10 09:15:59;;;;;;;11.95;6.38;;;22.10;53.30;;;;;;5097065;28;20074;-15
2022/10/10 09:18:58;;;;;;;9.40;6.60;;;22.30;53.20;;;;;;5097318;28;20463;-15
2022/10/10 09:21:32;;;;;;;11.57;6.85;;;22.40;53.60;;;;;;5087968;28;20100;-14
2022/10/10 09:24:19;;;;;;;14.45;7.45;;;22.70;52.50;;;;;;5096977;28;20032;-14
2022/10/10 09:27:21;;;;;;;10.43;6.30;;;22.70;51.00;;;;;;5096710;28;20026;-14
2022/10/10 09:29:56;;;;;;;12.90;6.68;;;22.60;51.20;;;;;;5054118;28;20516;-15
2022/10/10 09:32:27;;;;;;;10.95;6.72;;;22.70;51.70;;;;;;5037519;28;20476;-16
2022/10/10 09:35:19;;;;;;;12.18;6.75;;;22.50;51.70;;;;;;5053721;28;20116;-14
2022/10/10 09:37:49;;;;;;;13.05;6.80;;;22.60;52.60;;;;;;5054193;28;20087;-14
2022/10/10 09:40:27;;;;;;;14.05;5.97;;;22.50;51.20;;;;;;5054014;28;20072;-14
2022/10/10 09:42:54;;;;;;;8.77;5.50;;;22.40;51.20;;;;;;5053937;28;20029;-15
2022/10/10 09:45:29;;;;;;;14.35;5.90;;;22.40;51.00;;;;;;5053822;28;20111;-14
2022/10/10 09:47:57;;;;;;;11.23;6.30;;;22.40;49.10;;;;;;5037317;28;20044;-14
2022/10/10 09:50:24;;;;;;;9.88;5.60;;;22.40;50.60;;;;;;5053661;28;20123;-14
2022/10/10 09:52:51;;;;;;;8.80;5.55;;;22.30;51.00;;;;;;5053881;28;20037;-14
2022/10/10 09:55:25;;;;;;;10.80;5.80;;;22.50;50.30;;;;;;5053604;28;20071;-14
2022/10/10 09:57:53;;;;;;;10.55;5.38;;;22.70;48.60;;;;;;5053585;28;20071;-13
2022/10/10 10:00:19;;;;;;;10.88;4.90;;;22.90;49.00;;;;;;5054499;28;20049;-14
2022/10/10 10:02:49;;;;;;;10.05;5.78;;;23.10;49.40;;;;;;5053567;28;20079;-14
2022/10/10 10:05:25;;;;;;;12.18;5.78;;;23.80;49.50;;;;;;5073959;28;20035;-14
2022/10/10 10:07:51;;;;;;;11.43;5.55;;;24.40;47.00;;;;;;5096189;28;20417;-15
2022/10/10 10:10:21;;;;;;;8.10;5.00;;;24.70;46.10;;;;;;5095642;28;20539;-15
2022/10/10 10:12:47;;;;;;;10.05;5.90;;;25.00;45.70;;;;;;5095715;28;20032;-15
2022/10/10 10:15:28;;;;;;;10.57;4.95;;;25.20;45.40;;;;;;5095594;28;20107;-14
2022/10/10 10:18:16;;;;;;;10.77;5.60;;;25.20;44.20;;;;;;5095580;28;20024;-14
2022/10/10 10:20:48;;;;;;;8.43;5.22;;;25.20;43.80;;;;;;5095436;28;20057;-15
2022/10/10 10:23:25;;;;;;;9.18;5.30;;;25.40;44.70;;;;;;5095581;28;20016;-14
2022/10/10 10:26:26;;;;;;;7.47;4.72;;;25.40;43.40;;;;;;5095383;28;20032;-15
2022/10/10 10:28:54;;;;;;;8.18;5.40;;;25.50;41.80;;;;;;5052923;28;20049;-14
2022/10/10 10:31:34;;;;;;;12.48;5.50;;;25.50;43.00;;;;;;5053534;28;20107;-15
2022/10/10 10:34:35;;;;;;;10.65;4.90;;;25.60;44.10;;;;;;5053133;28;20029;-15
2022/10/10 10:37:39;;;;;;;12.57;5.50;;;25.60;41.20;;;;;;4993246;28;20089;-15
2022/10/10 10:40:17;;;;;;;9.75;5.20;;;26.20;41.10;;;;;;4954810;28;20488;-15
2022/10/10 10:42:46;;;;;;;10.93;4.97;;;26.90;40.60;;;;;;4954838;29;20032;-15
2022/10/10 10:45:43;;;;;;;10.38;5.30;;;27.40;41.50;;;;;;4954774;29;20023;-15
2022/10/10 10:48:14;;;;;;;9.23;5.63;;;27.90;38.70;;;;;;4955065;29;20407;-15
2022/10/10 10:50:47;;;;;;;10.75;5.60;;;27.90;38.10;;;;;;4954662;29;20130;-15
2022/10/10 10:53:30;;;;;;;7.35;5.30;;;27.70;38.30;;;;;;4954805;29;20031;-15
2022/10/10 10:56:14;;;;;;;;;;;27.80;38.30;;;;;;4954977;29;20036;-15
2022/10/10 10:59:03;;;;;;;9.55;5.72;;;27.90;37.60;;;;;;4954595;29;19956;-14
2022/10/10 11:01:32;;;;;;;9.55;5.68;;;27.60;37.90;;;;;;4954727;29;20038;-14
2022/10/10 11:04:02;;;;;;;10.70;5.20;;;27.80;39.40;;;;;;4954636;28;20114;-15
2022/10/10 11:07:04;;;;;;;9.43;5.22;;;27.80;38.90;;;;;;4973654;28;20042;-14
2022/10/10 11:10:00;;;;;;;7.47;4.90;;;27.70;37.80;;;;;;4974099;28;20066;-14
2022/10/10 11:12:41;;;;;;;9.98;5.38;;;27.90;38.60;;;;;;4983737;28;20031;-14
2022/10/10 11:15:18;;;;;;;9.55;4.65;;;28.40;36.50;;;;;;5051938;28;20033;-14
2022/10/10 11:18:02;;;;;;;8.85;5.07;;;28.80;37.00;;;;;;5094498;28;20085;-14
2022/10/10 11:20:52;;;;;;;8.73;5.55;;;28.70;37.80;;;;;;5095178;28;20030;-14
2022/10/10 11:23:34;;;;;;;10.15;5.10;;;28.60;37.10;;;;;;5093978;28;20051;-14
2022/10/10 11:26:29;;;;;;;9.65;4.70;;;28.90;35.30;;;;;;5094716;28;20016;-14
2022/10/10 11:29:05;;;;;;;9.77;4.95;;;28.00;37.70;;;;;;5087678;28;20043;-15
2022/10/10 11:31:44;;;;;;;6.60;5.22;;;27.60;37.40;;;;;;5094504;28;20047;-14
2022/10/10 11:34:27;;;;;;;8.57;4.65;;;27.40;37.40;;;;;;5094174;28;20480;-14
2022/10/10 11:36:59;;;;;;;7.63;4.60;;;27.40;38.30;;;;;;5092420;28;20059;-14
2022/10/10 11:39:33;;;;;;;10.20;4.82;;;27.80;38.50;;;;;;5094347;28;20043;-15
2022/10/10 11:42:02;;;;;;;9.07;4.93;;;28.30;37.70;;;;;;5094018;28;20383;-14
2022/10/10 11:44:56;;;;;;;8.27;4.75;;;28.70;36.80;;;;;;5093919;28;20387;-14
2022/10/10 11:47:25;;;;;;;9.68;4.78;;;29.30;36.90;;;;;;5089195;28;20032;-14
2022/10/10 11:50:12;;;;;;;8.07;4.90;;;29.40;35.40;;;;;;5092540;28;20040;-15
2022/10/10 11:52:56;;;;;;;9.45;4.78;;;29.30;35.10;;;;;;5093962;28;20035;-14
2022/10/10 11:55:50;;;;;;;8.15;4.75;;;29.60;34.20;;;;;;5093741;28;20036;-15
2022/10/10 11:58:27;;;;;;;7.65;4.50;;;29.40;35.40;;;;;;5094370;28;20016;-14
2022/10/10 12:00:59;;;;;;;8.40;4.95;;;28.70;35.40;;;;;;5093398;28;20548;-15
2022/10/10 12:03:25;;;;;;;6.47;4.53;;;28.80;36.60;;;;;;5093724;28;20090;-15
2022/10/10 12:06:19;;;;;;;10.70;5.40;;;28.70;36.90;;;;;;5092327;28;20024;-15
2022/10/10 12:09:09;;;;;;;9.27;5.28;;;28.70;35.90;;;;;;5093644;28;20032;-15
2022/10/10 12:11:42;;;;;;;8.55;5.43;;;28.70;36.60;;;;;;5093582;28;20046;-15
2022/10/10 12:14:12;;;;;;;9.48;4.78;;;29.00;37.00;;;;;;5093541;28;20027;-15
2022/10/10 12:16:38;;;;;;;7.47;4.90;;;29.30;37.00;;;;;;5093758;28;20051;-15
2022/10/10 12:19:06;;;;;;;7.47;5.18;;;29.60;36.30;;;;;;5093196;28;20021;-15
2022/10/10 12:21:53;;;;;;;8.27;4.68;;;29.40;35.40;;;;;;5093500;28;20372;-15
2022/10/10 12:24:20;;;;;;;8.50;4.65;;;29.30;35.80;;;;;;5093651;28;20031;-16
2022/10/10 12:26:51;;;;;;;7.78;4.88;;;29.40;35.40;;;;;;5093312;28;20483;-15
2022/10/10 12:29:40;;;;;;;7.15;4.80;;;29.30;35.90;;;;;;5093145;28;20032;-15
2022/10/10 12:32:18;;;;;;;9.10;5.57;;;29.00;35.80;;;;;;5093240;28;20051;-14
2022/10/10 12:34:49;;;;;;;8.27;5.32;;;28.90;36.10;;;;;;5093151;28;20522;-15
2022/10/10 12:38:02;;;;;;;7.20;4.90;;;28.90;36.60;;;;;;5092955;28;20072;-15
2022/10/10 12:40:28;;;;;;;7.72;5.28;;;28.90;35.10;;;;;;5091657;28;20038;-14
2022/10/10 12:42:54;;;;;;;9.98;4.93;;;29.20;36.40;;;;;;5097387;28;20020;-15
2022/10/10 12:45:56;;;;;;;8.65;4.85;;;29.00;36.80;;;;;;5097280;28;20028;-15
2022/10/10 12:48:24;;;;;;;6.90;4.75;;;29.10;36.30;;;;;;5095293;28;20499;-15
2022/10/10 12:50:59;;;;;;;8.63;5.03;;;29.10;36.50;;;;;;5096816;28;20036;-15
2022/10/10 12:53:29;;;;;;;9.27;5.30;;;29.00;35.80;;;;;;5096034;28;20047;-15
2022/10/10 12:55:57;;;;;;;7.50;4.85;;;28.70;36.10;;;;;;5097403;28;20391;-15
2022/10/10 12:58:46;;;;;;;7.50;4.95;;;28.50;36.70;;;;;;5097444;28;20032;-15
2022/10/10 13:01:33;;;;;;;8.20;4.93;;;28.60;36.90;;;;;;5097372;28;20024;-15
2022/10/10 13:03:59;;;;;;;10.02;5.22;;;28.60;35.00;;;;;;5097658;28;20088;-15
2022/10/10 13:06:39;;;;;;;8.65;4.80;;;28.40;37.00;;;;;;5097143;28;20455;-15